sensor_id;sensor_type;location;lat;lon;timestamp;P1;durP1;ratioP1;P2;durP2;ratioP2
68507;SDS011;55510;49.560;19.090;2023-03-02T10:37:13;14.80;;;8.30;;
68507;SDS011;55510;49.560;19.090;2023-03-02T10:40:23;13.20;;;6.78;;
68507;SDS011;55510;49.560;19.090;2023-03-02T10:43:40;11.98;;;7.25;;
68507;SDS011;55510;49.560;19.090;2023-03-02T10:46:48;12.63;;;8.00;;
68507;SDS011;55510;49.560;19.090;2023-03-02T10:49:50;13.27;;;7.65;;
68507;SDS011;55510;49.560;19.090;2023-03-02T10:52:52;16.42;;;9.65;;
68507;SDS011;55510;49.560;19.090;2023-03-02T10:55:52;17.87;;;11.47;;
68507;SDS011;55510;49.560;19.090;2023-03-02T10:58:56;17.67;;;9.80;;
68507;SDS011;55510;49.560;19.090;2023-03-02T11:02:23;15.60;;;8.55;;
68507;SDS011;55510;49.560;19.090;2023-03-02T11:08:36;17.93;;;10.47;;
68507;SDS011;55510;49.560;19.090;2023-03-02T11:11:36;18.07;;;10.17;;
68507;SDS011;55510;49.560;19.090;2023-03-02T11:14:37;21.33;;;10.37;;
68507;SDS011;55510;49.560;19.090;2023-03-02T11:17:38;19.35;;;11.38;;
68507;SDS011;55510;49.560;19.090;2023-03-02T11:20:41;18.17;;;10.68;;
68507;SDS011;55510;49.560;19.090;2023-03-02T11:27:24;17.20;;;10.57;;
68507;SDS011;55510;49.560;19.090;2023-03-02T11:30:28;16.03;;;9.93;;
68507;SDS011;55510;49.560;19.090;2023-03-02T11:33:38;18.23;;;10.63;;
68507;SDS011;55510;49.560;19.090;2023-03-02T11:36:51;16.45;;;10.68;;
68507;SDS011;55510;49.560;19.090;2023-03-02T11:43:08;17.00;;;11.17;;
68507;SDS011;55510;49.560;19.090;2023-03-02T11:46:13;17.53;;;11.37;;
68507;SDS011;55510;49.560;19.090;2023-03-02T11:49:28;19.27;;;12.48;;
68507;SDS011;55510;49.560;19.090;2023-03-02T11:52:45;15.80;;;10.02;;
68507;SDS011;55510;49.560;19.090;2023-03-02T11:55:51;17.25;;;10.75;;
68507;SDS011;55510;49.560;19.090;2023-03-02T11:58:53;16.80;;;10.80;;
68507;SDS011;55510;49.560;19.090;2023-03-02T12:01:57;18.85;;;11.07;;
68507;SDS011;55510;49.560;19.090;2023-03-02T12:05:00;18.92;;;11.10;;
68507;SDS011;55510;49.560;19.090;2023-03-02T12:08:28;18.57;;;10.97;;
68507;SDS011;55510;49.560;19.090;2023-03-02T12:11:27;16.60;;;10.60;;
68507;SDS011;55510;49.560;19.090;2023-03-02T12:14:37;20.10;;;11.30;;
68507;SDS011;55510;49.560;19.090;2023-03-02T12:17:40;16.23;;;10.65;;
68507;SDS011;55510;49.560;19.090;2023-03-02T12:20:40;17.20;;;11.30;;
68507;SDS011;55510;49.560;19.090;2023-03-02T12:26:58;15.38;;;9.40;;
68507;SDS011;55510;49.560;19.090;2023-03-02T12:30:26;16.40;;;10.20;;
68507;SDS011;55510;49.560;19.090;2023-03-02T12:33:28;17.30;;;10.30;;
68507;SDS011;55510;49.560;19.090;2023-03-02T12:36:30;18.37;;;10.77;;
68507;SDS011;55510;49.560;19.090;2023-03-02T12:46:35;15.90;;;9.13;;
68507;SDS011;55510;49.560;19.090;2023-03-02T12:50:15;15.07;;;7.72;;
68507;SDS011;55510;49.560;19.090;2023-03-02T12:53:17;16.10;;;9.43;;
68507;SDS011;55510;49.560;19.090;2023-03-02T12:56:22;15.35;;;8.30;;
68507;SDS011;55510;49.560;19.090;2023-03-02T12:59:25;18.70;;;11.23;;
68507;SDS011;55510;49.560;19.090;2023-03-02T13:02:28;15.33;;;9.27;;
68507;SDS011;55510;49.560;19.090;2023-03-02T13:05:34;16.48;;;9.80;;
68507;SDS011;55510;49.560;19.090;2023-03-02T13:08:35;18.33;;;9.90;;
68507;SDS011;55510;49.560;19.090;2023-03-02T13:11:36;14.40;;;8.75;;
68507;SDS011;55510;49.560;19.090;2023-03-02T13:14:38;19.57;;;11.23;;
68507;SDS011;55510;49.560;19.090;2023-03-02T13:17:40;19.05;;;10.73;;
68507;SDS011;55510;49.560;19.090;2023-03-02T13:20:41;18.05;;;9.82;;
68507;SDS011;55510;49.560;19.090;2023-03-02T13:23:46;17.53;;;8.47;;
68507;SDS011;55510;49.560;19.090;2023-03-02T13:26:53;16.75;;;9.10;;
68507;SDS011;55510;49.560;19.090;2023-03-02T13:30:06;18.80;;;8.68;;
68507;SDS011;55510;49.560;19.090;2023-03-02T13:33:18;20.05;;;10.95;;
68507;SDS011;55510;49.560;19.090;2023-03-02T13:36:28;25.50;;;12.40;;
68507;SDS011;55510;49.560;19.090;2023-03-02T13:39:34;19.80;;;10.13;;
68507;SDS011;55510;49.560;19.090;2023-03-02T13:42:39;17.38;;;9.02;;
68507;SDS011;55510;49.560;19.090;2023-03-02T13:45:40;18.77;;;9.10;;
68507;SDS011;55510;49.560;19.090;2023-03-02T13:48:58;14.00;;;6.87;;
68507;SDS011;55510;49.560;19.090;2023-03-02T13:52:01;19.27;;;9.90;;
68507;SDS011;55510;49.560;19.090;2023-03-02T13:55:07;15.65;;;7.65;;
68507;SDS011;55510;49.560;19.090;2023-03-02T13:58:17;14.93;;;7.85;;
68507;SDS011;55510;49.560;19.090;2023-03-02T14:01:18;15.80;;;7.32;;
68507;SDS011;55510;49.560;19.090;2023-03-02T14:04:20;18.00;;;8.53;;
68507;SDS011;55510;49.560;19.090;2023-03-02T14:07:25;15.55;;;7.60;;
68507;SDS011;55510;49.560;19.090;2023-03-02T14:10:25;17.60;;;8.43;;
68507;SDS011;55510;49.560;19.090;2023-03-02T14:13:34;19.85;;;9.68;;
68507;SDS011;55510;49.560;19.090;2023-03-02T14:16:39;19.33;;;9.57;;
68507;SDS011;55510;49.560;19.090;2023-03-02T14:19:40;20.25;;;9.25;;
68507;SDS011;55510;49.560;19.090;2023-03-02T14:22:41;17.70;;;8.00;;
68507;SDS011;55510;49.560;19.090;2023-03-02T14:25:44;17.67;;;8.00;;
68507;SDS011;55510;49.560;19.090;2023-03-02T14:28:44;20.42;;;8.80;;
68507;SDS011;55510;49.560;19.090;2023-03-02T14:31:46;21.93;;;9.23;;
68507;SDS011;55510;49.560;19.090;2023-03-02T14:34:46;22.85;;;9.13;;
68507;SDS011;55510;49.560;19.090;2023-03-02T14:37:47;17.70;;;8.53;;
68507;SDS011;55510;49.560;19.090;2023-03-02T14:40:48;19.17;;;8.80;;
68507;SDS011;55510;49.560;19.090;2023-03-02T14:43:50;17.70;;;7.65;;
68507;SDS011;55510;49.560;19.090;2023-03-02T14:46:50;21.27;;;8.97;;
68507;SDS011;55510;49.560;19.090;2023-03-02T14:49:52;22.27;;;9.68;;
68507;SDS011;55510;49.560;19.090;2023-03-02T14:52:54;22.48;;;10.10;;
68507;SDS011;55510;49.560;19.090;2023-03-02T14:55:57;22.40;;;9.95;;
68507;SDS011;55510;49.560;19.090;2023-03-02T14:58:58;19.77;;;8.83;;
68507;SDS011;55510;49.560;19.090;2023-03-02T15:01:59;19.98;;;8.13;;
68507;SDS011;55510;49.560;19.090;2023-03-02T15:05:00;21.07;;;9.37;;
68507;SDS011;55510;49.560;19.090;2023-03-02T15:08:01;27.38;;;10.85;;
68507;SDS011;55510;49.560;19.090;2023-03-02T15:11:01;25.13;;;10.90;;
68507;SDS011;55510;49.560;19.090;2023-03-02T15:14:02;25.63;;;12.57;;
68507;SDS011;55510;49.560;19.090;2023-03-02T15:17:03;26.00;;;11.17;;
68507;SDS011;55510;49.560;19.090;2023-03-02T15:20:04;34.63;;;15.05;;
68507;SDS011;55510;49.560;19.090;2023-03-02T15:23:05;38.47;;;16.88;;
68507;SDS011;55510;49.560;19.090;2023-03-02T15:26:07;36.40;;;15.75;;
68507;SDS011;55510;49.560;19.090;2023-03-02T15:29:09;28.63;;;14.13;;
68507;SDS011;55510;49.560;19.090;2023-03-02T15:32:09;32.00;;;15.35;;
68507;SDS011;55510;49.560;19.090;2023-03-02T15:35:10;44.10;;;17.97;;
68507;SDS011;55510;49.560;19.090;2023-03-02T15:38:14;45.63;;;20.65;;
68507;SDS011;55510;49.560;19.090;2023-03-02T15:41:14;58.33;;;25.83;;
68507;SDS011;55510;49.560;19.090;2023-03-02T15:44:19;73.75;;;33.20;;
68507;SDS011;55510;49.560;19.090;2023-03-02T15:47:22;68.20;;;33.60;;
68507;SDS011;55510;49.560;19.090;2023-03-02T15:50:23;65.32;;;32.42;;
68507;SDS011;55510;49.560;19.090;2023-03-02T15:53:24;56.97;;;28.40;;
68507;SDS011;55510;49.560;19.090;2023-03-02T15:56:25;53.65;;;26.90;;
68507;SDS011;55510;49.560;19.090;2023-03-02T15:59:26;62.97;;;31.63;;
68507;SDS011;55510;49.560;19.090;2023-03-02T16:02:29;89.90;;;46.22;;
68507;SDS011;55510;49.560;19.090;2023-03-02T16:05:29;100.82;;;50.13;;
68507;SDS011;55510;49.560;19.090;2023-03-02T16:08:30;80.50;;;39.47;;
68507;SDS011;55510;49.560;19.090;2023-03-02T16:11:31;85.30;;;42.30;;
68507;SDS011;55510;49.560;19.090;2023-03-02T16:14:32;68.10;;;33.00;;
68507;SDS011;55510;49.560;19.090;2023-03-02T16:17:33;56.92;;;26.83;;
68507;SDS011;55510;49.560;19.090;2023-03-02T16:20:37;69.83;;;29.27;;
68507;SDS011;55510;49.560;19.090;2023-03-02T16:23:38;69.30;;;31.63;;
68507;SDS011;55510;49.560;19.090;2023-03-02T16:26:39;65.53;;;29.30;;
68507;SDS011;55510;49.560;19.090;2023-03-02T16:29:40;58.87;;;27.77;;
68507;SDS011;55510;49.560;19.090;2023-03-02T16:32:42;62.75;;;28.00;;
68507;SDS011;55510;49.560;19.090;2023-03-02T16:35:43;62.58;;;27.77;;
68507;SDS011;55510;49.560;19.090;2023-03-02T16:38:44;99.30;;;45.27;;
68507;SDS011;55510;49.560;19.090;2023-03-02T16:41:44;140.77;;;56.78;;
68507;SDS011;55510;49.560;19.090;2023-03-02T16:44:46;105.90;;;45.77;;
68507;SDS011;55510;49.560;19.090;2023-03-02T16:47:49;94.60;;;39.08;;
68507;SDS011;55510;49.560;19.090;2023-03-02T16:50:53;92.10;;;37.55;;
68507;SDS011;55510;49.560;19.090;2023-03-02T16:53:55;83.68;;;35.30;;
68507;SDS011;55510;49.560;19.090;2023-03-02T16:56:57;82.97;;;37.92;;
68507;SDS011;55510;49.560;19.090;2023-03-02T16:59:57;87.20;;;37.93;;
68507;SDS011;55510;49.560;19.090;2023-03-02T17:02:58;85.88;;;38.55;;
68507;SDS011;55510;49.560;19.090;2023-03-02T17:05:59;83.57;;;35.43;;
68507;SDS011;55510;49.560;19.090;2023-03-02T17:09:01;71.57;;;33.80;;
68507;SDS011;55510;49.560;19.090;2023-03-02T17:12:02;80.35;;;34.83;;
68507;SDS011;55510;49.560;19.090;2023-03-02T17:15:03;95.97;;;39.63;;
68507;SDS011;55510;49.560;19.090;2023-03-02T17:18:04;100.63;;;43.37;;
68507;SDS011;55510;49.560;19.090;2023-03-02T17:21:05;119.55;;;45.50;;
68507;SDS011;55510;49.560;19.090;2023-03-02T17:24:05;107.50;;;44.33;;
68507;SDS011;55510;49.560;19.090;2023-03-02T17:27:07;125.20;;;51.43;;
68507;SDS011;55510;49.560;19.090;2023-03-02T17:30:08;135.68;;;54.38;;
68507;SDS011;55510;49.560;19.090;2023-03-02T17:33:12;152.80;;;60.10;;
68507;SDS011;55510;49.560;19.090;2023-03-02T17:36:14;179.15;;;66.72;;
68507;SDS011;55510;49.560;19.090;2023-03-02T17:39:15;180.37;;;66.40;;
68507;SDS011;55510;49.560;19.090;2023-03-02T17:42:16;180.30;;;64.88;;
68507;SDS011;55510;49.560;19.090;2023-03-02T17:45:19;183.47;;;66.83;;
68507;SDS011;55510;49.560;19.090;2023-03-02T17:48:22;201.25;;;70.20;;
68507;SDS011;55510;49.560;19.090;2023-03-02T17:51:25;231.05;;;76.38;;
68507;SDS011;55510;49.560;19.090;2023-03-02T17:54:27;219.07;;;74.95;;
68507;SDS011;55510;49.560;19.090;2023-03-02T17:57:27;235.17;;;82.90;;
68507;SDS011;55510;49.560;19.090;2023-03-02T18:00:28;230.93;;;79.78;;
68507;SDS011;55510;49.560;19.090;2023-03-02T18:03:29;204.57;;;71.83;;
68507;SDS011;55510;49.560;19.090;2023-03-02T18:06:30;212.43;;;72.97;;
68507;SDS011;55510;49.560;19.090;2023-03-02T18:09:31;195.20;;;69.47;;
68507;SDS011;55510;49.560;19.090;2023-03-02T18:12:31;199.85;;;69.38;;
68507;SDS011;55510;49.560;19.090;2023-03-02T18:15:33;186.23;;;70.33;;
68507;SDS011;55510;49.560;19.090;2023-03-02T18:18:33;211.80;;;72.97;;
68507;SDS011;55510;49.560;19.090;2023-03-02T18:21:34;196.30;;;72.00;;
68507;SDS011;55510;49.560;19.090;2023-03-02T18:24:35;192.60;;;68.55;;
68507;SDS011;55510;49.560;19.090;2023-03-02T18:27:36;180.85;;;65.10;;
68507;SDS011;55510;49.560;19.090;2023-03-02T18:30:37;187.13;;;69.23;;
68507;SDS011;55510;49.560;19.090;2023-03-02T18:33:38;175.00;;;60.15;;
68507;SDS011;55510;49.560;19.090;2023-03-02T18:36:38;186.33;;;64.83;;
68507;SDS011;55510;49.560;19.090;2023-03-02T18:39:39;162.48;;;59.40;;
68507;SDS011;55510;49.560;19.090;2023-03-02T18:42:40;176.27;;;63.57;;
68507;SDS011;55510;49.560;19.090;2023-03-02T18:45:41;197.48;;;67.25;;
68507;SDS011;55510;49.560;19.090;2023-03-02T18:48:42;213.13;;;77.78;;
68507;SDS011;55510;49.560;19.090;2023-03-02T18:51:43;206.43;;;74.17;;
68507;SDS011;55510;49.560;19.090;2023-03-02T18:54:45;214.32;;;75.50;;
68507;SDS011;55510;49.560;19.090;2023-03-02T18:57:46;197.50;;;72.55;;
68507;SDS011;55510;49.560;19.090;2023-03-02T19:00:47;236.00;;;80.03;;
68507;SDS011;55510;49.560;19.090;2023-03-02T19:03:48;219.80;;;76.80;;
68507;SDS011;55510;49.560;19.090;2023-03-02T19:06:49;205.27;;;68.40;;
68507;SDS011;55510;49.560;19.090;2023-03-02T19:09:50;212.03;;;71.23;;
68507;SDS011;55510;49.560;19.090;2023-03-02T19:12:50;180.05;;;64.97;;
68507;SDS011;55510;49.560;19.090;2023-03-02T19:15:51;158.27;;;56.13;;
68507;SDS011;55510;49.560;19.090;2023-03-02T19:18:55;158.70;;;60.95;;
68507;SDS011;55510;49.560;19.090;2023-03-02T19:21:56;154.85;;;53.03;;
68507;SDS011;55510;49.560;19.090;2023-03-02T19:24:57;153.10;;;55.33;;
68507;SDS011;55510;49.560;19.090;2023-03-02T19:27:57;169.68;;;58.05;;
68507;SDS011;55510;49.560;19.090;2023-03-02T19:31:00;142.65;;;51.55;;
68507;SDS011;55510;49.560;19.090;2023-03-02T19:34:03;131.05;;;48.90;;
68507;SDS011;55510;49.560;19.090;2023-03-02T19:37:04;166.43;;;59.20;;
68507;SDS011;55510;49.560;19.090;2023-03-02T19:40:05;154.60;;;57.05;;
68507;SDS011;55510;49.560;19.090;2023-03-02T19:43:06;161.73;;;59.90;;
68507;SDS011;55510;49.560;19.090;2023-03-02T19:46:07;151.33;;;55.30;;
68507;SDS011;55510;49.560;19.090;2023-03-02T19:49:11;147.18;;;54.80;;
68507;SDS011;55510;49.560;19.090;2023-03-02T19:52:12;149.07;;;55.80;;
68507;SDS011;55510;49.560;19.090;2023-03-02T19:55:13;150.53;;;50.60;;
68507;SDS011;55510;49.560;19.090;2023-03-02T19:58:14;147.73;;;54.80;;
68507;SDS011;55510;49.560;19.090;2023-03-02T20:01:17;156.43;;;55.30;;
68507;SDS011;55510;49.560;19.090;2023-03-02T20:04:24;184.13;;;67.93;;
68507;SDS011;55510;49.560;19.090;2023-03-02T20:07:24;213.87;;;78.17;;
68507;SDS011;55510;49.560;19.090;2023-03-02T20:13:30;216.37;;;73.53;;
68507;SDS011;55510;49.560;19.090;2023-03-02T20:16:33;177.20;;;62.88;;
68507;SDS011;55510;49.560;19.090;2023-03-02T20:19:35;186.25;;;65.60;;
68507;SDS011;55510;49.560;19.090;2023-03-02T20:22:36;191.20;;;64.85;;
68507;SDS011;55510;49.560;19.090;2023-03-02T20:25:36;167.23;;;57.90;;
68507;SDS011;55510;49.560;19.090;2023-03-02T20:28:38;162.30;;;54.25;;
68507;SDS011;55510;49.560;19.090;2023-03-02T20:31:38;165.27;;;57.78;;
68507;SDS011;55510;49.560;19.090;2023-03-02T20:34:40;170.43;;;60.90;;
68507;SDS011;55510;49.560;19.090;2023-03-02T20:37:42;149.30;;;52.30;;
68507;SDS011;55510;49.560;19.090;2023-03-02T20:40:43;140.40;;;48.83;;
68507;SDS011;55510;49.560;19.090;2023-03-02T20:43:45;124.10;;;43.73;;
68507;SDS011;55510;49.560;19.090;2023-03-02T20:46:48;122.88;;;44.35;;
68507;SDS011;55510;49.560;19.090;2023-03-02T20:49:52;126.25;;;48.75;;
68507;SDS011;55510;49.560;19.090;2023-03-02T20:52:56;150.55;;;51.30;;
68507;SDS011;55510;49.560;19.090;2023-03-02T20:55:57;172.70;;;59.28;;
68507;SDS011;55510;49.560;19.090;2023-03-02T20:58:58;166.97;;;59.37;;
68507;SDS011;55510;49.560;19.090;2023-03-02T21:01:59;160.55;;;57.42;;
68507;SDS011;55510;49.560;19.090;2023-03-02T21:05:00;191.65;;;66.25;;
68507;SDS011;55510;49.560;19.090;2023-03-02T21:08:00;265.10;;;83.23;;
68507;SDS011;55510;49.560;19.090;2023-03-02T21:11:01;216.13;;;71.00;;
68507;SDS011;55510;49.560;19.090;2023-03-02T21:14:02;239.57;;;74.50;;
68507;SDS011;55510;49.560;19.090;2023-03-02T21:17:04;232.15;;;71.53;;
68507;SDS011;55510;49.560;19.090;2023-03-02T21:20:05;222.50;;;69.90;;
68507;SDS011;55510;49.560;19.090;2023-03-02T21:23:06;288.42;;;93.05;;
68507;SDS011;55510;49.560;19.090;2023-03-02T21:26:07;268.73;;;83.90;;
68507;SDS011;55510;49.560;19.090;2023-03-02T21:29:10;268.00;;;82.17;;
68507;SDS011;55510;49.560;19.090;2023-03-02T21:32:12;247.95;;;79.53;;
68507;SDS011;55510;49.560;19.090;2023-03-02T21:35:16;215.63;;;71.20;;
68507;SDS011;55510;49.560;19.090;2023-03-02T21:38:19;211.52;;;69.95;;
68507;SDS011;55510;49.560;19.090;2023-03-02T21:41:20;189.00;;;63.43;;
68507;SDS011;55510;49.560;19.090;2023-03-02T21:44:21;161.48;;;54.95;;
68507;SDS011;55510;49.560;19.090;2023-03-02T21:47:22;135.63;;;49.15;;
68507;SDS011;55510;49.560;19.090;2023-03-02T21:50:24;140.87;;;49.67;;
68507;SDS011;55510;49.560;19.090;2023-03-02T21:53:27;128.50;;;47.10;;
68507;SDS011;55510;49.560;19.090;2023-03-02T21:56:28;122.27;;;43.33;;
68507;SDS011;55510;49.560;19.090;2023-03-02T21:59:28;134.73;;;49.40;;
68507;SDS011;55510;49.560;19.090;2023-03-02T22:02:30;177.60;;;64.97;;
68507;SDS011;55510;49.560;19.090;2023-03-02T22:05:31;148.07;;;56.13;;
68507;SDS011;55510;49.560;19.090;2023-03-02T22:08:33;149.63;;;52.40;;
68507;SDS011;55510;49.560;19.090;2023-03-02T22:11:35;138.90;;;50.85;;
68507;SDS011;55510;49.560;19.090;2023-03-02T22:14:37;142.85;;;53.10;;
68507;SDS011;55510;49.560;19.090;2023-03-02T22:17:38;131.30;;;49.25;;
68507;SDS011;55510;49.560;19.090;2023-03-02T22:20:41;127.20;;;51.03;;
68507;SDS011;55510;49.560;19.090;2023-03-02T22:23:44;133.27;;;51.45;;
68507;SDS011;55510;49.560;19.090;2023-03-02T22:26:45;124.97;;;47.87;;
68507;SDS011;55510;49.560;19.090;2023-03-02T22:29:50;125.30;;;46.33;;
68507;SDS011;55510;49.560;19.090;2023-03-02T22:32:53;150.07;;;55.22;;
68507;SDS011;55510;49.560;19.090;2023-03-02T22:36:03;139.32;;;51.55;;
68507;SDS011;55510;49.560;19.090;2023-03-02T22:39:16;123.77;;;47.87;;
68507;SDS011;55510;49.560;19.090;2023-03-02T22:42:23;132.48;;;48.70;;
68507;SDS011;55510;49.560;19.090;2023-03-02T22:45:27;150.70;;;50.70;;
68507;SDS011;55510;49.560;19.090;2023-03-02T22:48:28;140.65;;;51.58;;
68507;SDS011;55510;49.560;19.090;2023-03-02T22:51:29;139.23;;;50.40;;
68507;SDS011;55510;49.560;19.090;2023-03-02T22:54:31;138.98;;;49.13;;
68507;SDS011;55510;49.560;19.090;2023-03-02T22:57:36;133.48;;;48.13;;
68507;SDS011;55510;49.560;19.090;2023-03-02T23:00:38;133.07;;;44.33;;
68507;SDS011;55510;49.560;19.090;2023-03-02T23:03:40;128.90;;;45.78;;
68507;SDS011;55510;49.560;19.090;2023-03-02T23:06:48;113.72;;;42.95;;
68507;SDS011;55510;49.560;19.090;2023-03-02T23:09:51;112.50;;;41.33;;
